createdAt,value
2018-09-08T00:01:49.063Z,4.30
2018-09-08T00:05:22.267Z,4.40
2018-09-08T00:08:55.483Z,5.03
2018-09-08T00:12:28.692Z,4.50
2018-09-08T00:16:07.375Z,4.87
2018-09-08T00:19:45.982Z,4.60
2018-09-08T00:23:24.444Z,5.30
2018-09-08T00:26:56.892Z,4.90
2018-09-08T00:30:30.092Z,4.73
2018-09-08T00:34:03.284Z,5.43
2018-09-08T00:37:36.471Z,4.80
2018-09-08T00:41:09.683Z,4.73
2018-09-08T00:44:42.905Z,5.10
2018-09-08T00:48:16.133Z,5.13
2018-09-08T00:51:49.364Z,5.30
2018-09-08T00:55:22.593Z,5.17
2018-09-08T00:59:01.217Z,5.27
2018-09-08T01:02:34.433Z,5.57
2018-09-08T01:06:07.945Z,5.37
2018-09-08T01:09:41.169Z,4.67
2018-09-08T01:13:14.384Z,5.17
2018-09-08T01:16:47.589Z,5.77
2018-09-08T01:20:20.814Z,6.40
2018-09-08T01:23:54.410Z,4.67
2018-09-08T01:27:27.662Z,4.67
2018-09-08T01:31:01.168Z,4.40
2018-09-08T01:34:34.427Z,4.67
2018-09-08T01:38:07.656Z,5.70
2018-09-08T01:41:40.868Z,9.50
2018-09-08T01:45:14.092Z,5.10
2018-09-08T01:48:47.311Z,5.13
2018-09-08T01:52:20.548Z,5.40
2018-09-08T01:55:53.752Z,4.63
2018-09-08T01:59:26.980Z,5.03
2018-09-08T02:03:00.201Z,5.50
2018-09-08T02:06:33.415Z,4.63
2018-09-08T02:10:06.640Z,4.73
2018-09-08T02:13:39.876Z,5.70
2018-09-08T02:17:13.109Z,6.23
2018-09-08T02:20:46.315Z,5.67
2018-09-08T02:24:19.540Z,5.80
2018-09-08T02:27:52.768Z,5.67
2018-09-08T02:31:25.985Z,5.13
2018-09-08T02:34:59.210Z,5.57
2018-09-08T02:38:32.432Z,4.77
2018-09-08T02:42:05.883Z,5.67
2018-09-08T02:45:39.108Z,5.70
2018-09-08T02:49:12.330Z,4.97
2018-09-08T02:52:44.552Z,5.30
2018-09-08T02:56:16.767Z,5.63
2018-09-08T02:59:49.028Z,5.87
2018-09-08T03:03:21.659Z,6.10
2018-09-08T03:06:54.103Z,5.27
2018-09-08T03:10:26.333Z,6.63
2018-09-08T03:13:58.559Z,6.37
2018-09-08T03:17:30.831Z,5.37
2018-09-08T03:21:03.056Z,6.57
2018-09-08T03:24:35.297Z,5.80
2018-09-08T03:28:07.521Z,6.13
2018-09-08T03:31:39.731Z,6.43
2018-09-08T03:35:11.973Z,8.50
2018-09-08T03:38:44.204Z,6.50
2018-09-08T03:42:16.428Z,7.20
2018-09-08T03:45:48.645Z,7.10
2018-09-08T03:49:20.872Z,6.40
2018-09-08T03:52:53.099Z,7.57
2018-09-08T03:56:25.324Z,7.03
2018-09-08T03:59:57.544Z,6.50
2018-09-08T04:03:30.763Z,7.10
2018-09-08T04:07:03.982Z,7.60
2018-09-08T04:10:37.179Z,7.87
2018-09-08T04:14:10.400Z,8.40
2018-09-08T04:17:43.640Z,7.57
2018-09-08T04:21:16.876Z,8.23
2018-09-08T04:24:50.078Z,7.60
2018-09-08T04:28:23.303Z,9.40
2018-09-08T04:31:56.528Z,6.70
2018-09-08T04:35:29.743Z,8.00
2018-09-08T04:39:03.479Z,7.43
2018-09-08T04:42:36.683Z,7.67
2018-09-08T04:46:09.911Z,6.63
2018-09-08T04:49:43.136Z,8.23
2018-09-08T04:53:16.372Z,6.83
2018-09-08T04:56:49.596Z,7.10
2018-09-08T05:00:22.825Z,8.07
2018-09-08T05:03:56.033Z,7.17
2018-09-08T05:07:29.257Z,9.03
2018-09-08T05:11:03.105Z,7.23
2018-09-08T05:14:36.340Z,6.67
2018-09-08T05:18:09.576Z,6.77
2018-09-08T05:21:42.828Z,8.10
2018-09-08T05:25:16.040Z,7.93
2018-09-08T05:28:49.312Z,7.47
2018-09-08T05:32:22.552Z,7.83
2018-09-08T05:35:55.785Z,8.03
2018-09-08T05:39:29.028Z,8.23
2018-09-08T05:43:02.294Z,8.10
2018-09-08T05:46:35.615Z,7.37
2018-09-08T05:50:08.832Z,8.07
2018-09-08T05:53:42.084Z,8.90
2018-09-08T05:57:15.336Z,9.60
2018-09-08T06:00:48.623Z,8.83
2018-09-08T06:04:21.847Z,8.80
2018-09-08T06:07:55.078Z,8.30
2018-09-08T06:11:28.319Z,8.93
2018-09-08T06:15:01.581Z,10.83
2018-09-08T06:18:34.812Z,10.93
2018-09-08T06:22:08.071Z,13.33
2018-09-08T06:25:41.461Z,9.83
2018-09-08T06:29:14.653Z,9.57
2018-09-08T06:32:47.884Z,10.67
2018-09-08T06:36:21.132Z,10.90
2018-09-08T06:39:54.400Z,10.10
2018-09-08T06:43:27.645Z,14.90
2018-09-08T06:47:02.130Z,11.50
2018-09-08T06:50:35.437Z,11.57
2018-09-08T06:54:08.691Z,14.03
2018-09-08T06:57:41.947Z,13.07
2018-09-08T07:01:15.178Z,13.77
2018-09-08T07:04:48.424Z,12.67
2018-09-08T07:08:21.662Z,13.47
2018-09-08T07:11:54.925Z,12.10
2018-09-08T07:15:28.192Z,12.67
2018-09-08T07:19:01.425Z,13.33
2018-09-08T07:22:34.693Z,14.37
2018-09-08T07:26:07.957Z,13.30
2018-09-08T07:29:41.204Z,12.77
2018-09-08T07:33:14.432Z,13.90
2018-09-08T07:36:47.675Z,13.37
2018-09-08T07:40:20.933Z,12.23
2018-09-08T07:43:54.224Z,18.03
2018-09-08T07:47:27.456Z,13.37
2018-09-08T07:51:00.712Z,11.30
2018-09-08T07:54:33.969Z,14.20
2018-09-08T07:58:07.200Z,13.00
2018-09-08T08:01:40.447Z,12.57
2018-09-08T08:05:13.733Z,11.80
2018-09-08T08:08:46.981Z,13.07
2018-09-08T08:12:20.236Z,11.87
2018-09-08T08:15:53.469Z,11.80
2018-09-08T08:19:26.720Z,11.10
2018-09-08T08:23:00.857Z,9.97
2018-09-08T08:26:34.105Z,8.37
2018-09-08T08:30:07.356Z,8.17
2018-09-08T08:33:40.576Z,8.17
2018-09-08T08:37:13.872Z,8.07
2018-09-08T08:40:47.077Z,7.37
2018-09-08T08:44:20.341Z,8.30
2018-09-08T08:47:53.604Z,6.47
2018-09-08T08:51:42.744Z,7.70
2018-09-08T08:55:15.011Z,7.93
2018-09-08T08:58:48.275Z,8.23
2018-09-08T09:02:21.541Z,9.00
2018-09-08T09:05:54.818Z,7.63
2018-09-08T09:09:28.060Z,6.07
2018-09-08T09:13:01.417Z,6.53
2018-09-08T09:16:34.564Z,7.20
2018-09-08T09:20:19.280Z,6.47
2018-09-08T09:25:14.045Z,6.50
2018-09-08T09:28:47.263Z,5.83
2018-09-08T09:32:20.701Z,6.03
2018-09-08T09:35:53.944Z,6.77
2018-09-08T09:39:27.181Z,5.43
2018-09-08T09:43:00.429Z,4.83
2018-09-08T09:46:33.676Z,5.60
2018-09-08T09:50:08.391Z,5.17
2018-09-08T09:53:41.624Z,5.03
2018-09-08T09:57:14.916Z,5.67
2018-09-08T10:00:53.497Z,4.10
2018-09-08T10:04:26.725Z,5.10
2018-09-08T10:07:59.967Z,4.07
2018-09-08T10:11:33.211Z,4.73
2018-09-08T10:15:06.892Z,4.47
2018-09-08T10:18:40.113Z,5.60
2018-09-08T10:22:13.924Z,5.00
2018-09-08T10:25:47.224Z,4.30
2018-09-08T10:29:20.692Z,4.40
2018-09-08T10:32:53.920Z,4.40
2018-09-08T10:36:27.225Z,4.73
2018-09-08T10:40:00.470Z,3.87
2018-09-08T10:43:33.713Z,5.57
2018-09-08T10:47:06.996Z,4.40
2018-09-08T10:50:40.236Z,4.60
2018-09-08T10:54:13.472Z,4.47
2018-09-08T10:57:46.716Z,4.60
2018-09-08T11:01:19.959Z,7.00
2018-09-08T11:04:53.630Z,3.90
2018-09-08T11:08:26.871Z,4.00
2018-09-08T11:12:00.097Z,4.23
2018-09-08T11:15:33.921Z,5.07
2018-09-08T11:19:07.145Z,5.40
2018-09-08T11:22:40.387Z,5.13
2018-09-08T11:26:13.647Z,5.50
2018-09-08T11:29:46.877Z,5.00
2018-09-08T11:33:20.115Z,5.33
2018-09-08T11:36:53.348Z,5.13
2018-09-08T11:40:26.581Z,4.90
2018-09-08T11:43:59.796Z,4.93
2018-09-08T11:47:33.033Z,4.40
2018-09-08T11:51:06.273Z,3.90
2018-09-08T11:54:39.574Z,4.93
2018-09-08T11:58:12.799Z,4.87
2018-09-08T12:01:46.048Z,3.97
2018-09-08T12:05:19.390Z,4.23
2018-09-08T12:08:52.619Z,4.07
2018-09-08T12:12:25.847Z,4.77
2018-09-08T12:15:59.092Z,4.07
2018-09-08T12:19:32.320Z,3.90
2018-09-08T12:23:05.572Z,3.20
2018-09-08T12:26:38.818Z,3.07
2018-09-08T12:30:12.062Z,2.77
2018-09-08T12:33:45.365Z,2.50
2018-09-08T12:37:18.673Z,3.43
2018-09-08T12:40:51.856Z,3.40
2018-09-08T12:44:25.105Z,2.80
2018-09-08T12:47:58.328Z,3.40
2018-09-08T12:51:31.599Z,2.70
2018-09-08T12:55:05.068Z,2.40
2018-09-08T12:58:38.316Z,2.90
2018-09-08T13:02:11.548Z,2.40
2018-09-08T13:05:44.776Z,2.37
2018-09-08T13:09:18.010Z,2.67
2018-09-08T13:12:51.309Z,3.10
2018-09-08T13:16:24.540Z,3.13
2018-09-08T13:19:57.773Z,3.90
2018-09-08T13:23:31.012Z,3.00
2018-09-08T13:27:04.354Z,3.43
2018-09-08T13:30:37.602Z,2.33
2018-09-08T13:34:11.664Z,3.07
2018-09-08T13:37:44.876Z,2.30
2018-09-08T13:41:18.109Z,3.43
2018-09-08T13:44:51.357Z,2.73
2018-09-08T13:48:24.598Z,2.10
2018-09-08T13:51:57.875Z,2.83
2018-09-08T13:55:31.111Z,2.73
2018-09-08T13:59:04.456Z,2.33
2018-09-08T14:02:37.680Z,3.90
2018-09-08T14:06:10.988Z,2.87
2018-09-08T14:09:44.230Z,2.00
2018-09-08T14:13:17.453Z,1.90
2018-09-08T14:16:50.672Z,2.20
2018-09-08T14:20:23.892Z,2.17
2018-09-08T14:23:57.132Z,2.07
2018-09-08T14:27:30.357Z,2.93
2018-09-08T14:31:03.707Z,2.30
2018-09-08T14:34:36.940Z,2.63
2018-09-08T14:38:10.160Z,3.40
2018-09-08T14:41:43.376Z,2.03
2018-09-08T14:45:16.623Z,2.60
2018-09-08T14:48:49.910Z,3.40
2018-09-08T14:52:23.587Z,2.30
2018-09-08T14:55:56.869Z,2.30
2018-09-08T14:59:30.109Z,2.37
2018-09-08T15:03:03.353Z,2.90
2018-09-08T15:06:36.591Z,2.17
2018-09-08T15:10:09.839Z,2.70
2018-09-08T15:13:43.097Z,2.27
2018-09-08T15:17:16.346Z,2.33
2018-09-08T15:20:49.601Z,1.70
2018-09-08T15:24:22.904Z,2.40
2018-09-08T15:27:56.122Z,2.40
2018-09-08T15:31:29.445Z,2.33
2018-09-08T15:35:02.721Z,2.57
2018-09-08T15:38:35.993Z,11.50
2018-09-08T15:42:09.216Z,1.83
2018-09-08T15:45:42.507Z,2.57
2018-09-08T15:49:15.763Z,3.00
2018-09-08T15:52:49.242Z,2.50
2018-09-08T15:56:22.519Z,2.70
2018-09-08T15:59:55.768Z,3.00
2018-09-08T16:03:29.008Z,2.67
2018-09-08T16:07:02.347Z,2.73
2018-09-08T16:10:37.243Z,2.73
2018-09-08T16:14:10.519Z,2.57
2018-09-08T16:17:43.743Z,3.60
2018-09-08T16:21:16.965Z,2.83
2018-09-08T16:24:50.220Z,2.60
2018-09-08T16:28:23.477Z,2.80
2018-09-08T16:31:56.705Z,3.00
2018-09-08T16:35:29.952Z,11.23
2018-09-08T16:39:03.282Z,2.60
2018-09-08T16:42:36.513Z,2.57
2018-09-08T16:46:09.737Z,3.60
2018-09-08T16:49:42.985Z,3.00
2018-09-08T16:53:16.223Z,3.00
2018-09-08T16:56:49.448Z,4.67
2018-09-08T17:00:22.703Z,5.83
2018-09-08T17:03:55.995Z,3.70
2018-09-08T17:07:29.621Z,5.87
2018-09-08T17:11:03.332Z,4.20
2018-09-08T17:14:36.573Z,3.87
2018-09-08T17:18:09.804Z,3.90
2018-09-08T17:21:43.020Z,4.03
2018-09-08T17:25:16.264Z,5.40
2018-09-08T17:28:49.779Z,5.83
2018-09-08T17:32:23.101Z,6.20
2018-09-08T17:35:56.257Z,5.30
2018-09-08T17:39:29.487Z,4.37
2018-09-08T17:43:02.708Z,4.17
2018-09-08T17:46:35.952Z,6.40
2018-09-08T17:50:09.212Z,5.90
2018-09-08T17:53:42.452Z,5.47
2018-09-08T17:57:15.716Z,4.47
2018-09-08T18:00:48.912Z,4.10
2018-09-08T18:04:22.147Z,5.60
2018-09-08T18:07:55.379Z,3.57
2018-09-08T18:11:28.626Z,4.83
2018-09-08T18:15:01.844Z,4.73
2018-09-08T18:18:35.060Z,4.37
2018-09-08T18:22:08.524Z,5.30
2018-09-08T18:25:41.754Z,5.63
2018-09-08T18:29:15.001Z,5.30
2018-09-08T18:32:48.349Z,4.83
2018-09-08T18:36:23.536Z,7.27
2018-09-08T18:39:56.862Z,7.00
2018-09-08T18:43:30.083Z,4.80
2018-09-08T18:47:03.299Z,6.53
2018-09-08T18:50:36.524Z,6.63
2018-09-08T18:54:09.747Z,7.47
2018-09-08T18:57:42.987Z,6.97
2018-09-08T19:01:16.229Z,8.57
2018-09-08T19:04:49.444Z,7.10
2018-09-08T19:08:25.516Z,6.90
2018-09-08T19:11:58.747Z,6.80
2018-09-08T19:15:31.984Z,8.03
2018-09-08T19:19:05.299Z,7.77
2018-09-08T19:22:38.870Z,6.93
2018-09-08T19:26:12.095Z,9.00
2018-09-08T19:29:48.904Z,9.57
2018-09-08T19:33:22.782Z,7.90
2018-09-08T19:36:56.040Z,6.57
2018-09-08T19:40:34.716Z,6.40
2018-09-08T19:44:08.272Z,11.20
2018-09-08T19:47:47.035Z,8.30
2018-09-08T19:51:20.276Z,8.03
2018-09-08T19:54:53.538Z,9.90
2018-09-08T19:58:32.347Z,10.00
2018-09-08T20:02:05.645Z,8.83
2018-09-08T20:05:38.846Z,9.03
2018-09-08T20:09:12.075Z,6.73
2018-09-08T20:12:45.303Z,8.20
2018-09-08T20:16:18.545Z,6.40
2018-09-08T20:19:51.866Z,7.80
2018-09-08T20:23:28.008Z,9.93
2018-09-08T20:27:01.329Z,10.80
2018-09-08T20:30:34.537Z,10.50
2018-09-08T20:34:07.760Z,8.93
2018-09-08T20:37:40.986Z,6.90
2018-09-08T20:41:14.207Z,7.67
2018-09-08T20:44:47.416Z,7.80
2018-09-08T20:48:20.631Z,9.23
2018-09-08T20:51:53.876Z,8.40
2018-09-08T20:55:27.099Z,8.37
2018-09-08T20:59:00.334Z,8.47
2018-09-08T21:02:33.553Z,9.43
2018-09-08T21:06:06.766Z,7.93
2018-09-08T21:09:40.588Z,8.50
2018-09-08T21:13:13.870Z,8.40
2018-09-08T21:16:47.040Z,6.73
2018-09-08T21:20:20.295Z,8.40
2018-09-08T21:23:53.511Z,9.40
2018-09-08T21:27:26.740Z,10.53
2018-09-08T21:30:59.945Z,10.00
2018-09-08T21:34:33.172Z,8.90
2018-09-08T21:38:06.391Z,5.90
2018-09-08T21:41:39.640Z,7.80
2018-09-08T21:45:12.852Z,7.10
2018-09-08T21:48:46.073Z,8.47
2018-09-08T21:52:19.296Z,7.93
2018-09-08T21:55:52.516Z,8.13
2018-09-08T21:59:25.732Z,8.77
2018-09-08T22:02:58.983Z,7.90
2018-09-08T22:06:32.197Z,7.97
2018-09-08T22:10:05.412Z,6.60
2018-09-08T22:13:38.620Z,8.67
2018-09-08T22:17:11.840Z,8.10
2018-09-08T22:20:45.047Z,7.77
2018-09-08T22:24:18.313Z,7.60
2018-09-08T22:27:51.529Z,8.43
2018-09-08T22:31:24.743Z,8.07
2018-09-08T22:34:57.969Z,7.40
2018-09-08T22:38:31.187Z,6.90
2018-09-08T22:42:04.401Z,7.30
2018-09-08T22:45:37.680Z,8.67
2018-09-08T22:49:10.895Z,9.30
2018-09-08T22:52:44.116Z,7.27
2018-09-08T22:56:17.321Z,8.40
2018-09-08T22:59:50.540Z,9.00
2018-09-08T23:03:23.751Z,9.47
2018-09-08T23:06:56.984Z,8.13
2018-09-08T23:10:30.195Z,9.03
2018-09-08T23:14:03.416Z,8.63
2018-09-08T23:17:36.702Z,8.47
2018-09-08T23:21:09.939Z,9.50
2018-09-08T23:24:43.152Z,7.73
2018-09-08T23:28:16.375Z,8.70
2018-09-08T23:31:49.693Z,9.73
2018-09-08T23:35:22.863Z,7.70
2018-09-08T23:38:56.099Z,7.20
2018-09-08T23:42:29.324Z,7.50
2018-09-08T23:46:02.546Z,7.20
2018-09-08T23:49:35.751Z,8.20
2018-09-08T23:53:08.983Z,7.93
2018-09-08T23:56:42.244Z,7.07
